createdAt,value
2022-11-14T00:01:25.664Z,4.80
2022-11-14T00:03:53.683Z,4.70
2022-11-14T00:06:21.892Z,4.70
2022-11-14T00:08:49.902Z,4.60
2022-11-14T00:11:19.302Z,4.60
2022-11-14T00:13:47.563Z,4.60
2022-11-14T00:16:15.587Z,4.50
2022-11-14T00:18:43.567Z,4.50
2022-11-14T00:21:11.610Z,4.50
2022-11-14T00:23:39.741Z,4.40
2022-11-14T00:26:08.062Z,4.40
2022-11-14T00:28:37.480Z,4.40
2022-11-14T00:31:05.979Z,4.30
2022-11-14T00:33:34.111Z,4.30
2022-11-14T00:36:02.363Z,4.20
2022-11-14T00:38:30.602Z,4.20
2022-11-14T00:40:58.968Z,4.10
2022-11-14T00:43:27.011Z,4.10
2022-11-14T00:45:56.403Z,4.10
2022-11-14T00:48:24.572Z,4.20
2022-11-14T00:50:52.560Z,4.10
2022-11-14T00:53:20.577Z,4.20
2022-11-14T00:55:48.674Z,4.10
2022-11-14T00:58:16.699Z,4.10
2022-11-14T01:00:44.733Z,4.10
2022-11-14T01:03:14.201Z,4.00
2022-11-14T01:05:43.432Z,4.00
2022-11-14T01:08:12.139Z,4.00
2022-11-14T01:10:41.812Z,4.00
2022-11-14T01:13:10.440Z,3.90
2022-11-14T01:15:40.560Z,3.90
2022-11-14T01:18:08.624Z,4.00
2022-11-14T01:20:39.816Z,3.90
2022-11-14T01:23:07.866Z,3.80
2022-11-14T01:25:36.684Z,3.90
2022-11-14T01:28:07.957Z,3.80
2022-11-14T01:30:36.360Z,3.80
2022-11-14T01:33:04.501Z,3.70
2022-11-14T01:35:32.918Z,3.80
2022-11-14T01:38:02.860Z,3.70
2022-11-14T01:40:30.999Z,3.70
2022-11-14T01:43:26.796Z,3.70
2022-11-14T01:45:57.803Z,3.60
2022-11-14T01:48:31.396Z,3.60
2022-11-14T01:51:03.622Z,3.50
2022-11-14T01:53:33.535Z,3.50
2022-11-14T01:56:06.569Z,3.50
2022-11-14T01:58:36.695Z,3.50
2022-11-14T02:01:05.075Z,3.40
2022-11-14T02:03:34.546Z,3.40
2022-11-14T02:06:03.357Z,3.50
2022-11-14T02:08:33.895Z,3.40
2022-11-14T02:11:01.943Z,3.40
2022-11-14T02:13:30.233Z,3.30
2022-11-14T02:15:58.598Z,3.30
2022-11-14T02:18:26.790Z,3.20
2022-11-14T02:20:56.298Z,3.20
2022-11-14T02:23:28.426Z,3.20
2022-11-14T02:25:56.769Z,3.20
2022-11-14T02:28:25.182Z,3.20
2022-11-14T02:30:53.210Z,3.20
2022-11-14T02:33:21.258Z,3.20
2022-11-14T02:35:49.519Z,3.20
2022-11-14T02:38:18.903Z,3.20
2022-11-14T02:40:46.986Z,3.20
2022-11-14T02:43:14.967Z,3.20
2022-11-14T02:45:43.026Z,3.10
2022-11-14T02:48:11.032Z,3.10
2022-11-14T02:50:39.124Z,3.10
2022-11-14T02:53:07.146Z,3.00
2022-11-14T02:55:36.573Z,3.00
2022-11-14T02:58:04.582Z,2.90
2022-11-14T03:00:32.645Z,2.90
2022-11-14T03:03:00.696Z,3.00
2022-11-14T03:05:28.697Z,3.00
2022-11-14T03:07:57.514Z,2.90
2022-11-14T03:10:25.833Z,2.90
2022-11-14T03:12:56.711Z,2.90
2022-11-14T03:15:25.332Z,2.80
2022-11-14T03:17:53.419Z,2.70
2022-11-14T03:20:21.770Z,2.80
2022-11-14T03:22:49.800Z,2.80
2022-11-14T03:25:17.974Z,2.80
2022-11-14T03:27:45.977Z,2.70
2022-11-14T03:30:15.797Z,2.70
2022-11-14T03:32:43.954Z,2.70
2022-11-14T03:35:12.246Z,2.70
2022-11-14T03:37:40.276Z,2.70
2022-11-14T03:40:09.987Z,2.70
2022-11-14T03:42:37.985Z,2.70
2022-11-14T03:45:07.038Z,2.70
2022-11-14T03:47:36.459Z,2.70
2022-11-14T03:50:04.943Z,2.60
2022-11-14T03:52:32.968Z,2.60
2022-11-14T03:55:01.006Z,2.60
2022-11-14T03:57:29.007Z,2.60
2022-11-14T03:59:57.060Z,2.60
2022-11-14T04:02:25.064Z,2.60
2022-11-14T04:04:54.471Z,2.70
2022-11-14T04:07:22.618Z,2.60
2022-11-14T04:09:51.972Z,2.60
2022-11-14T04:12:20.154Z,2.60
2022-11-14T04:14:48.167Z,2.60
2022-11-14T04:17:16.199Z,2.60
2022-11-14T04:19:44.242Z,2.70
2022-11-14T04:22:13.677Z,2.60
2022-11-14T04:24:41.672Z,2.70
2022-11-14T04:27:09.697Z,2.60
2022-11-14T04:29:37.692Z,2.70
2022-11-14T04:32:06.019Z,2.60
2022-11-14T04:34:34.046Z,2.60
2022-11-14T04:37:02.069Z,2.60
2022-11-14T04:39:31.655Z,2.60
2022-11-14T04:41:59.701Z,2.50
2022-11-14T04:44:27.726Z,2.50
2022-11-14T04:46:55.754Z,2.50
2022-11-14T04:49:24.409Z,2.40
2022-11-14T04:51:52.513Z,2.40
2022-11-14T04:54:20.509Z,2.40
2022-11-14T04:56:49.920Z,2.40
2022-11-14T04:59:20.798Z,2.40
2022-11-14T05:01:49.509Z,2.40
2022-11-14T05:04:17.594Z,2.40
2022-11-14T05:06:45.701Z,2.40
2022-11-14T05:09:13.793Z,2.40
2022-11-14T05:11:41.917Z,2.40
2022-11-14T05:14:11.297Z,2.40
2022-11-14T05:16:39.354Z,2.40
2022-11-14T05:19:07.357Z,2.40
2022-11-14T05:21:35.401Z,2.40
2022-11-14T05:24:03.434Z,2.40
2022-11-14T05:26:31.470Z,2.40
2022-11-14T05:28:59.489Z,2.40
2022-11-14T05:31:28.854Z,2.30
2022-11-14T05:33:56.878Z,2.40
2022-11-14T05:36:24.946Z,2.30
2022-11-14T05:38:53.379Z,2.30
2022-11-14T05:41:21.620Z,2.30
2022-11-14T05:43:49.812Z,2.30
2022-11-14T05:46:18.265Z,2.30
2022-11-14T05:48:47.675Z,2.30
2022-11-14T05:51:15.919Z,2.30
2022-11-14T05:53:44.042Z,2.30
2022-11-14T05:56:13.548Z,2.30
2022-11-14T05:58:41.973Z,2.30
2022-11-14T06:01:13.061Z,2.30
2022-11-14T06:03:42.774Z,2.20
2022-11-14T06:06:15.196Z,2.20
2022-11-14T06:08:43.496Z,2.20
2022-11-14T06:11:13.539Z,2.20
2022-11-14T06:13:41.976Z,2.10
2022-11-14T06:16:13.810Z,2.10
2022-11-14T06:18:42.034Z,2.10
2022-11-14T06:21:13.279Z,2.10
2022-11-14T06:23:41.469Z,2.10
2022-11-14T06:26:16.276Z,2.10
2022-11-14T06:28:44.278Z,2.10
2022-11-14T06:31:12.289Z,2.10
2022-11-14T06:33:40.310Z,2.10
2022-11-14T06:36:09.822Z,2.00
2022-11-14T06:38:40.691Z,2.00
2022-11-14T06:41:10.432Z,2.00
2022-11-14T06:43:40.533Z,1.90
2022-11-14T06:46:10.854Z,1.90
2022-11-14T06:48:39.318Z,1.90
2022-11-14T06:51:08.221Z,1.90
2022-11-14T06:53:38.236Z,1.90
2022-11-14T06:56:08.284Z,1.90
2022-11-14T06:58:38.957Z,1.90
2022-11-14T07:01:11.785Z,2.00
2022-11-14T07:03:39.890Z,1.90
2022-11-14T07:06:08.838Z,1.90
2022-11-14T07:08:38.706Z,2.00
2022-11-14T07:11:08.770Z,2.00
2022-11-14T07:13:37.574Z,2.00
2022-11-14T07:16:06.465Z,2.10
2022-11-14T07:18:35.074Z,2.10
2022-11-14T07:21:05.183Z,2.20
2022-11-14T07:23:34.366Z,2.20
2022-11-14T07:26:04.869Z,2.30
2022-11-14T07:28:33.223Z,2.40
2022-11-14T07:31:03.614Z,2.40
2022-11-14T07:33:32.174Z,2.50
2022-11-14T07:36:00.607Z,2.40
2022-11-14T07:38:29.078Z,2.50
2022-11-14T07:40:59.812Z,2.40
2022-11-14T07:43:29.825Z,2.50
2022-11-14T07:46:00.397Z,2.50
2022-11-14T07:48:28.874Z,2.50
2022-11-14T07:51:00.697Z,2.50
2022-11-14T07:53:29.355Z,2.50
2022-11-14T07:55:57.700Z,2.50
2022-11-14T07:58:25.753Z,2.60
2022-11-14T08:00:55.229Z,2.70
2022-11-14T08:03:23.444Z,2.70
2022-11-14T08:05:51.482Z,2.80
2022-11-14T08:08:19.533Z,2.80
2022-11-14T08:10:47.547Z,2.70
2022-11-14T08:13:33.254Z,2.80
2022-11-14T08:16:12.475Z,2.70
2022-11-14T08:18:41.734Z,2.70
2022-11-14T08:21:09.876Z,2.70
2022-11-14T08:23:38.847Z,2.70
2022-11-14T08:26:07.608Z,2.80
2022-11-14T08:28:35.611Z,2.90
2022-11-14T08:31:04.351Z,2.90
2022-11-14T08:33:33.985Z,2.90
2022-11-14T08:36:02.774Z,2.90
2022-11-14T08:38:33.077Z,3.00
2022-11-14T08:41:01.726Z,3.00
2022-11-14T08:43:29.779Z,3.10
2022-11-14T08:46:01.523Z,3.20
2022-11-14T08:48:31.322Z,3.30
2022-11-14T08:51:04.589Z,3.50
2022-11-14T08:53:32.707Z,3.60
2022-11-14T08:56:00.749Z,3.90
2022-11-14T08:58:31.374Z,4.00
2022-11-14T09:01:03.720Z,4.20
2022-11-14T09:03:31.901Z,4.30
2022-11-14T09:06:02.244Z,4.40
2022-11-14T09:08:31.202Z,4.60
2022-11-14T09:11:05.178Z,4.70
2022-11-14T09:13:34.214Z,4.80
2022-11-14T09:16:02.591Z,5.00
2022-11-14T09:18:31.785Z,5.10
2022-11-14T09:21:03.019Z,5.20
2022-11-14T09:23:31.745Z,5.30
2022-11-14T09:26:04.122Z,5.50
2022-11-14T09:28:32.170Z,5.60
2022-11-14T09:31:02.583Z,5.60
2022-11-14T09:33:31.063Z,5.70
2022-11-14T09:35:59.965Z,5.90
2022-11-14T09:38:32.788Z,6.00
2022-11-14T09:41:17.441Z,6.10
2022-11-14T09:44:05.329Z,6.10
2022-11-14T09:46:38.414Z,6.20
2022-11-14T09:49:12.555Z,6.40
2022-11-14T09:51:49.206Z,6.40
2022-11-14T09:54:24.302Z,6.50
2022-11-14T09:56:52.988Z,6.60
2022-11-14T09:59:21.307Z,6.70
2022-11-14T10:01:58.428Z,6.80
2022-11-14T10:04:40.641Z,6.90
2022-11-14T10:07:16.359Z,7.00
2022-11-14T10:10:04.178Z,6.90
2022-11-14T10:12:44.550Z,6.90
2022-11-14T10:15:19.821Z,6.80
2022-11-14T10:18:13.156Z,6.90
2022-11-14T10:20:45.987Z,6.90
2022-11-14T10:23:28.094Z,6.90
2022-11-14T10:26:08.955Z,6.90
2022-11-14T10:28:48.538Z,6.90
2022-11-14T10:31:24.409Z,7.00
2022-11-14T10:34:00.360Z,7.00
2022-11-14T10:36:40.394Z,7.10
2022-11-14T10:39:17.515Z,7.10
2022-11-14T10:41:57.904Z,7.10
2022-11-14T10:44:34.393Z,7.20
2022-11-14T10:47:07.596Z,7.20
2022-11-14T10:49:38.590Z,7.20
2022-11-14T10:52:13.492Z,7.20
2022-11-14T10:54:46.874Z,7.20
2022-11-14T10:57:21.583Z,7.40
2022-11-14T10:59:50.245Z,7.40
2022-11-14T11:02:18.324Z,7.40
2022-11-14T11:04:46.779Z,7.50
2022-11-14T11:07:40.749Z,7.50
2022-11-14T11:10:37.846Z,7.50
2022-11-14T11:13:12.890Z,7.60
2022-11-14T11:15:42.349Z,7.60
2022-11-14T11:18:27.177Z,7.60
2022-11-14T11:21:17.613Z,7.70
2022-11-14T11:23:53.558Z,7.70
2022-11-14T11:26:24.166Z,7.70
2022-11-14T11:29:06.603Z,7.70
2022-11-14T11:31:52.657Z,7.70
2022-11-14T11:34:25.338Z,7.80
2022-11-14T11:36:59.113Z,7.80
2022-11-14T11:39:30.752Z,7.90
2022-11-14T11:42:08.673Z,7.90
2022-11-14T11:44:45.160Z,7.90
2022-11-14T11:47:17.266Z,7.90
2022-11-14T11:49:53.003Z,8.10
2022-11-14T11:52:31.575Z,8.10
2022-11-14T11:55:04.772Z,8.20
2022-11-14T11:57:36.741Z,8.20
2022-11-14T12:00:15.328Z,8.30
2022-11-14T12:02:49.936Z,8.40
2022-11-14T12:05:26.790Z,8.40
2022-11-14T12:08:04.304Z,8.40
2022-11-14T12:10:35.352Z,8.50
2022-11-14T12:13:23.371Z,8.40
2022-11-14T12:16:08.907Z,8.40
2022-11-14T12:19:13.405Z,8.40
2022-11-14T12:22:09.839Z,8.50
2022-11-14T12:25:03.768Z,8.50
2022-11-14T12:27:50.583Z,8.60
2022-11-14T12:30:21.884Z,8.60
2022-11-14T12:32:57.483Z,8.50
2022-11-14T12:35:29.554Z,8.50
2022-11-14T12:38:00.080Z,8.50
2022-11-14T12:40:32.333Z,8.60
2022-11-14T12:43:02.575Z,8.60
2022-11-14T12:45:59.851Z,8.60
2022-11-14T12:48:34.522Z,8.60
2022-11-14T12:51:03.581Z,8.60
2022-11-14T12:53:42.940Z,8.60
2022-11-14T12:56:27.560Z,8.80
2022-11-14T12:59:13.375Z,8.90
2022-11-14T13:01:56.245Z,8.90
2022-11-14T13:04:35.237Z,8.90
2022-11-14T13:07:22.509Z,8.90
2022-11-14T13:10:16.610Z,9.00
2022-11-14T13:13:15.505Z,8.90
2022-11-14T13:16:11.715Z,9.00
2022-11-14T13:19:11.009Z,9.00
2022-11-14T13:22:00.542Z,8.90
2022-11-14T13:24:48.604Z,8.90
2022-11-14T13:27:52.366Z,8.90
2022-11-14T13:30:17.397Z,8.80
2022-11-14T13:33:06.178Z,8.90
2022-11-14T13:35:43.317Z,8.90
2022-11-14T13:38:43.987Z,9.00
2022-11-14T13:41:28.072Z,9.00
2022-11-14T13:44:20.947Z,9.10
2022-11-14T13:47:09.234Z,9.10
2022-11-14T13:49:59.927Z,9.20
2022-11-14T13:52:31.263Z,9.20
2022-11-14T13:55:00.150Z,9.20
2022-11-14T13:57:42.288Z,9.30
2022-11-14T14:00:19.641Z,9.30
2022-11-14T14:03:15.774Z,9.40
2022-11-14T14:06:14.147Z,9.40
2022-11-14T14:09:10.562Z,9.40
2022-11-14T14:11:51.885Z,9.50
2022-11-14T14:14:35.358Z,9.40
2022-11-14T14:17:12.987Z,9.50
2022-11-14T14:19:53.034Z,9.60
2022-11-14T14:22:29.823Z,9.70
2022-11-14T14:25:06.185Z,9.80
2022-11-14T14:27:42.760Z,9.70
2022-11-14T14:30:12.610Z,9.70
2022-11-14T14:32:42.236Z,9.60
2022-11-14T14:35:24.710Z,9.70
2022-11-14T14:37:53.445Z,9.60
2022-11-14T14:40:26.460Z,9.70
2022-11-14T14:42:57.314Z,9.70
2022-11-14T14:45:26.843Z,9.60
2022-11-14T14:48:03.555Z,9.70
2022-11-14T14:50:38.316Z,9.80
2022-11-14T14:53:07.095Z,9.80
2022-11-14T14:55:37.295Z,9.70
2022-11-14T14:58:21.160Z,9.70
2022-11-14T15:00:54.581Z,9.60
2022-11-14T15:03:25.542Z,9.60
2022-11-14T15:06:00.340Z,9.60
2022-11-14T15:08:30.013Z,9.70
2022-11-14T15:11:01.020Z,9.60
2022-11-14T15:13:31.198Z,9.60
2022-11-14T15:15:59.701Z,9.60
2022-11-14T15:18:32.610Z,9.60
2022-11-14T15:21:09.211Z,9.60
2022-11-14T15:23:39.014Z,9.60
2022-11-14T15:26:14.953Z,9.60
2022-11-14T15:28:43.086Z,9.50
2022-11-14T15:31:19.086Z,9.60
2022-11-14T15:34:02.458Z,9.70
2022-11-14T15:36:30.542Z,9.60
2022-11-14T15:39:03.705Z,9.60
2022-11-14T15:41:33.459Z,9.60
2022-11-14T15:44:05.288Z,9.50
2022-11-14T15:46:41.810Z,9.50
2022-11-14T15:49:20.138Z,9.50
2022-11-14T15:51:50.890Z,9.50
2022-11-14T15:54:30.646Z,9.60
2022-11-14T15:57:00.473Z,9.60
2022-11-14T15:59:31.387Z,9.60
2022-11-14T16:02:04.366Z,9.60
2022-11-14T16:04:36.167Z,9.70
2022-11-14T16:07:04.332Z,9.70
2022-11-14T16:09:32.404Z,9.60
2022-11-14T16:12:00.465Z,9.60
2022-11-14T16:14:28.480Z,9.60
2022-11-14T16:16:56.512Z,9.60
2022-11-14T16:19:24.520Z,9.60
2022-11-14T16:21:53.920Z,9.60
2022-11-14T16:24:23.425Z,9.60
2022-11-14T16:26:51.565Z,9.60
2022-11-14T16:29:19.565Z,9.60
2022-11-14T16:31:48.408Z,9.60
2022-11-14T16:34:21.372Z,9.60
2022-11-14T16:36:51.582Z,9.60
2022-11-14T16:39:20.941Z,9.60
2022-11-14T16:41:48.951Z,9.70
2022-11-14T16:44:18.663Z,9.70
2022-11-14T16:46:47.419Z,9.70
2022-11-14T16:49:16.104Z,9.80
2022-11-14T16:51:48.237Z,9.80
2022-11-14T16:54:17.635Z,9.80
2022-11-14T16:56:48.372Z,9.90
2022-11-14T16:59:16.547Z,9.90
2022-11-14T17:01:44.704Z,9.90
2022-11-14T17:04:12.748Z,9.80
2022-11-14T17:06:40.871Z,9.80
2022-11-14T17:09:08.980Z,9.70
2022-11-14T17:11:37.042Z,9.70
2022-11-14T17:14:06.575Z,9.80
2022-11-14T17:16:34.623Z,9.90
2022-11-14T17:19:02.795Z,10.00
2022-11-14T17:21:30.833Z,9.90
2022-11-14T17:24:00.427Z,10.00
2022-11-14T17:26:29.044Z,10.00
2022-11-14T17:28:57.229Z,10.00
2022-11-14T17:31:26.626Z,9.90
2022-11-14T17:33:56.449Z,9.90
2022-11-14T17:36:25.829Z,9.90
2022-11-14T17:38:53.865Z,10.00
2022-11-14T17:41:21.914Z,10.00
2022-11-14T17:43:53.892Z,10.00
2022-11-14T17:46:21.930Z,10.00
2022-11-14T17:48:51.501Z,10.00
2022-11-14T17:51:19.489Z,10.00
2022-11-14T17:53:47.845Z,10.00
2022-11-14T17:56:17.465Z,10.00
2022-11-14T17:58:46.348Z,10.00
2022-11-14T18:01:16.389Z,9.90
2022-11-14T18:03:44.619Z,9.90
2022-11-14T18:06:16.359Z,9.90
2022-11-14T18:08:44.451Z,9.90
2022-11-14T18:11:14.817Z,9.90
2022-11-14T18:13:43.166Z,9.90
2022-11-14T18:16:13.524Z,9.90
2022-11-14T18:18:41.604Z,9.90
2022-11-14T18:21:10.584Z,9.80
2022-11-14T18:23:39.987Z,9.80
2022-11-14T18:26:12.030Z,9.80
2022-11-14T18:28:40.193Z,9.80
2022-11-14T18:31:10.878Z,9.80
2022-11-14T18:33:39.876Z,9.80
2022-11-14T18:36:11.531Z,9.90
2022-11-14T18:38:41.002Z,9.80
2022-11-14T18:41:10.799Z,9.80
2022-11-14T18:43:38.872Z,9.80
2022-11-14T18:46:08.425Z,9.80
2022-11-14T18:48:38.120Z,9.70
2022-11-14T18:51:08.502Z,9.70
2022-11-14T18:53:37.226Z,9.60
2022-11-14T18:56:07.578Z,9.60
2022-11-14T18:58:36.662Z,9.60
2022-11-14T19:01:11.345Z,9.60
2022-11-14T19:03:39.555Z,9.60
2022-11-14T19:06:09.750Z,9.60
2022-11-14T19:08:37.802Z,9.60
2022-11-14T19:11:09.019Z,9.60
2022-11-14T19:13:37.050Z,9.60
2022-11-14T19:16:05.946Z,9.60
2022-11-14T19:18:34.161Z,9.60
2022-11-14T19:21:03.700Z,9.50
2022-11-14T19:23:31.905Z,9.60
2022-11-14T19:26:01.297Z,9.60
2022-11-14T19:28:30.739Z,9.60
2022-11-14T19:31:03.025Z,9.50
2022-11-14T19:33:31.570Z,9.40
2022-11-14T19:36:05.170Z,9.40
2022-11-14T19:38:33.262Z,9.50
2022-11-14T19:41:07.535Z,9.50
2022-11-14T19:43:38.680Z,9.50
2022-11-14T19:46:07.751Z,9.60
2022-11-14T19:48:36.551Z,9.60
2022-11-14T19:51:06.249Z,9.60
2022-11-14T19:53:35.799Z,9.60
2022-11-14T19:56:05.560Z,9.60
2022-11-14T19:58:36.031Z,9.70
2022-11-14T20:01:07.249Z,9.70
2022-11-14T20:03:35.859Z,9.70
2022-11-14T20:06:05.048Z,9.70
2022-11-14T20:08:33.051Z,9.80
2022-11-14T20:11:02.800Z,9.80
2022-11-14T20:13:31.458Z,9.80
2022-11-14T20:16:00.154Z,9.80
2022-11-14T20:18:30.455Z,9.90
2022-11-14T20:21:03.008Z,9.90
2022-11-14T20:23:31.353Z,9.90
2022-11-14T20:25:59.703Z,9.90
2022-11-14T20:28:27.978Z,9.90
2022-11-14T20:30:56.077Z,9.90
2022-11-14T20:33:24.117Z,9.90
2022-11-14T20:35:53.512Z,9.90
2022-11-14T20:38:21.547Z,9.90
2022-11-14T20:40:54.787Z,9.90
2022-11-14T20:43:23.028Z,10.00
2022-11-14T20:45:58.498Z,9.90
2022-11-14T20:48:27.151Z,9.90
2022-11-14T20:51:02.811Z,10.00
2022-11-14T20:53:31.520Z,10.00
2022-11-14T20:55:59.990Z,10.00
2022-11-14T20:58:28.271Z,10.00
2022-11-14T21:00:56.440Z,10.10
2022-11-14T21:03:24.844Z,10.00
2022-11-14T21:05:52.993Z,10.00
2022-11-14T21:08:22.394Z,10.10
2022-11-14T21:10:53.228Z,10.10
2022-11-14T21:13:40.662Z,10.10
2022-11-14T21:16:10.555Z,10.10
2022-11-14T21:18:40.749Z,10.20
2022-11-14T21:21:15.892Z,10.20
2022-11-14T21:23:46.365Z,10.20
2022-11-14T21:26:16.250Z,10.10
2022-11-14T21:28:46.952Z,10.20
2022-11-14T21:31:16.866Z,10.20
2022-11-14T21:33:45.169Z,10.20
2022-11-14T21:39:04.501Z,10.20
2022-11-14T21:41:33.145Z,10.20
2022-11-14T21:44:03.365Z,10.30
2022-11-14T21:46:31.412Z,10.30
2022-11-14T21:48:59.452Z,10.30
2022-11-14T21:51:28.919Z,10.30
2022-11-14T21:53:59.402Z,10.30
2022-11-14T21:56:30.251Z,10.30
2022-11-14T21:59:14.048Z,10.40
2022-11-14T22:02:01.897Z,10.40
2022-11-14T22:04:30.066Z,10.40
2022-11-14T22:06:58.475Z,10.40
2022-11-14T22:09:28.004Z,10.40
2022-11-14T22:11:57.416Z,10.40
2022-11-14T22:14:25.695Z,10.40
2022-11-14T22:16:53.716Z,10.40
2022-11-14T22:19:21.823Z,10.40
2022-11-14T22:21:50.053Z,10.40
2022-11-14T22:24:18.076Z,10.40
2022-11-14T22:26:46.101Z,10.40
2022-11-14T22:29:15.469Z,10.50
2022-11-14T22:31:43.487Z,10.50
2022-11-14T22:34:12.803Z,10.50
2022-11-14T22:36:40.842Z,10.50
2022-11-14T22:39:08.948Z,10.50
2022-11-14T22:41:36.976Z,10.50
2022-11-14T22:44:05.065Z,10.50
2022-11-14T22:46:34.462Z,10.50
2022-11-14T22:49:03.826Z,10.50
2022-11-14T22:51:31.923Z,10.50
2022-11-14T22:54:00.071Z,10.50
2022-11-14T22:56:29.968Z,10.50
2022-11-14T22:59:00.163Z,10.50
2022-11-14T23:01:29.656Z,10.50
2022-11-14T23:04:00.579Z,10.50
2022-11-14T23:06:29.456Z,10.50
2022-11-14T23:08:57.771Z,10.50
2022-11-14T23:11:27.514Z,10.50
2022-11-14T23:13:57.109Z,10.50
2022-11-14T23:16:26.715Z,10.50
2022-11-14T23:18:56.542Z,10.50
2022-11-14T23:21:28.365Z,10.40
2022-11-14T23:23:57.307Z,10.50
2022-11-14T23:26:26.493Z,10.40
2022-11-14T23:28:55.457Z,10.50
2022-11-14T23:31:24.911Z,10.50
2022-11-14T23:33:54.806Z,10.50
2022-11-14T23:36:23.247Z,10.50
2022-11-14T23:38:54.548Z,10.50
2022-11-14T23:41:25.390Z,10.40
2022-11-14T23:43:53.523Z,10.40
2022-11-14T23:46:21.582Z,10.40
2022-11-14T23:48:50.778Z,10.40
2022-11-14T23:51:18.828Z,10.40
2022-11-14T23:53:46.883Z,10.40
2022-11-14T23:56:16.500Z,10.40
2022-11-14T23:58:44.847Z,10.50
